Terminal Aerodrome Forecast
Issued by NWS

Home | Current Version | Previous Version | Text Only | Print | Product List | Glossary On
Versions: 1 2 3 4 5 6 7 8 9 10 11 12 13 14 15 16 17 18 19 20 21 22 23 24 25 26 27 28 29 30 31 32 33 34 35 36
267
FTAK31 PAJK 180537
TAFAPG
TAF
PAPG 180537Z 1806/1906 VRB04KT P6SM BCFG SKC
     FM181200 00000KT 3SM BR FEW002 SCT006 BKN010
      TEMPO 1813/1817 1/2SM FG BKN002
     FM181800 10005KT P6SM SCT040 BKN060 OVC080 PROB30 1819/1824 6SM
      -RA BR SCT020 BKN040 OVC060
     FM190000 10006KT 4SM -RA BR SCT006 SCT010 OVC025
     FM190300 10006KT 3SM -RA BR FEW006 OVC010
     AMD LTD TO CLD VIS AND WIND 1806/1815=

USA.gov is the U.S. government's official web portal to all federal, state and local government web resources and services.